sensor_id;sensor_type;location;lat;lon;timestamp;P1;durP1;ratioP1;P2;durP2;ratioP2
19812;SDS011;10066;48.108;11.448;2023-04-24T00:01:08;1.80;;;1.00;;
19812;SDS011;10066;48.108;11.448;2023-04-24T00:03:37;1.40;;;1.13;;
19812;SDS011;10066;48.108;11.448;2023-04-24T00:06:04;2.63;;;1.10;;
19812;SDS011;10066;48.108;11.448;2023-04-24T00:08:31;3.00;;;1.10;;
19812;SDS011;10066;48.108;11.448;2023-04-24T00:10:58;2.03;;;1.00;;
19812;SDS011;10066;48.108;11.448;2023-04-24T00:13:25;1.70;;;1.00;;
19812;SDS011;10066;48.108;11.448;2023-04-24T00:15:53;2.03;;;1.10;;
19812;SDS011;10066;48.108;11.448;2023-04-24T00:18:20;2.13;;;1.30;;
19812;SDS011;10066;48.108;11.448;2023-04-24T00:20:48;1.60;;;1.30;;
19812;SDS011;10066;48.108;11.448;2023-04-24T00:23:15;2.33;;;1.20;;
19812;SDS011;10066;48.108;11.448;2023-04-24T00:25:42;1.43;;;1.03;;
19812;SDS011;10066;48.108;11.448;2023-04-24T00:28:09;3.40;;;1.20;;
19812;SDS011;10066;48.108;11.448;2023-04-24T00:30:36;2.20;;;1.10;;
19812;SDS011;10066;48.108;11.448;2023-04-24T00:33:03;2.33;;;0.90;;
19812;SDS011;10066;48.108;11.448;2023-04-24T00:35:30;2.20;;;1.30;;
19812;SDS011;10066;48.108;11.448;2023-04-24T00:37:59;1.63;;;1.03;;
19812;SDS011;10066;48.108;11.448;2023-04-24T00:40:26;3.30;;;1.03;;
19812;SDS011;10066;48.108;11.448;2023-04-24T00:42:54;3.37;;;1.43;;
19812;SDS011;10066;48.108;11.448;2023-04-24T00:45:21;2.70;;;1.20;;
19812;SDS011;10066;48.108;11.448;2023-04-24T00:47:48;4.27;;;1.40;;
19812;SDS011;10066;48.108;11.448;2023-04-24T00:50:16;3.13;;;1.10;;
19812;SDS011;10066;48.108;11.448;2023-04-24T00:52:44;2.67;;;1.17;;
19812;SDS011;10066;48.108;11.448;2023-04-24T00:55:13;3.00;;;1.23;;
19812;SDS011;10066;48.108;11.448;2023-04-24T00:57:39;2.50;;;1.10;;
19812;SDS011;10066;48.108;11.448;2023-04-24T01:00:07;2.43;;;1.00;;
19812;SDS011;10066;48.108;11.448;2023-04-24T01:02:37;3.10;;;1.10;;
19812;SDS011;10066;48.108;11.448;2023-04-24T01:05:09;3.00;;;1.00;;
19812;SDS011;10066;48.108;11.448;2023-04-24T01:07:36;1.57;;;1.17;;
19812;SDS011;10066;48.108;11.448;2023-04-24T01:10:04;1.33;;;0.83;;
19812;SDS011;10066;48.108;11.448;2023-04-24T01:12:34;1.10;;;0.87;;
19812;SDS011;10066;48.108;11.448;2023-04-24T01:15:01;1.83;;;1.03;;
19812;SDS011;10066;48.108;11.448;2023-04-24T01:17:30;1.47;;;0.70;;
19812;SDS011;10066;48.108;11.448;2023-04-24T01:19:57;1.83;;;1.10;;
19812;SDS011;10066;48.108;11.448;2023-04-24T01:22:26;1.40;;;0.90;;
19812;SDS011;10066;48.108;11.448;2023-04-24T01:24:53;1.73;;;0.70;;
19812;SDS011;10066;48.108;11.448;2023-04-24T01:27:20;0.70;;;0.60;;
19812;SDS011;10066;48.108;11.448;2023-04-24T01:29:47;0.90;;;0.63;;
19812;SDS011;10066;48.108;11.448;2023-04-24T01:32:16;1.97;;;0.70;;
19812;SDS011;10066;48.108;11.448;2023-04-24T01:34:44;1.03;;;0.50;;
19812;SDS011;10066;48.108;11.448;2023-04-24T01:37:12;2.00;;;0.70;;
19812;SDS011;10066;48.108;11.448;2023-04-24T01:39:40;0.97;;;0.70;;
19812;SDS011;10066;48.108;11.448;2023-04-24T01:42:07;1.13;;;0.70;;
19812;SDS011;10066;48.108;11.448;2023-04-24T01:44:34;3.93;;;0.70;;
19812;SDS011;10066;48.108;11.448;2023-04-24T01:47:02;1.80;;;0.57;;
19812;SDS011;10066;48.108;11.448;2023-04-24T01:49:29;1.00;;;0.60;;
19812;SDS011;10066;48.108;11.448;2023-04-24T01:51:56;2.00;;;0.70;;
19812;SDS011;10066;48.108;11.448;2023-04-24T01:54:23;1.60;;;0.90;;
19812;SDS011;10066;48.108;11.448;2023-04-24T01:56:51;0.67;;;0.50;;
19812;SDS011;10066;48.108;11.448;2023-04-24T01:59:18;0.57;;;0.57;;
19812;SDS011;10066;48.108;11.448;2023-04-24T02:01:47;1.13;;;0.50;;
19812;SDS011;10066;48.108;11.448;2023-04-24T02:04:14;0.50;;;0.47;;
19812;SDS011;10066;48.108;11.448;2023-04-24T02:06:41;1.07;;;0.60;;
19812;SDS011;10066;48.108;11.448;2023-04-24T02:09:08;0.80;;;0.50;;
19812;SDS011;10066;48.108;11.448;2023-04-24T02:11:36;0.57;;;0.57;;
19812;SDS011;10066;48.108;11.448;2023-04-24T02:14:04;2.03;;;0.60;;
19812;SDS011;10066;48.108;11.448;2023-04-24T02:16:31;0.50;;;0.50;;
19812;SDS011;10066;48.108;11.448;2023-04-24T02:18:58;1.60;;;0.60;;
19812;SDS011;10066;48.108;11.448;2023-04-24T02:21:25;1.87;;;0.50;;
19812;SDS011;10066;48.108;11.448;2023-04-24T02:23:53;2.20;;;0.53;;
19812;SDS011;10066;48.108;11.448;2023-04-24T02:26:20;0.93;;;0.50;;
19812;SDS011;10066;48.108;11.448;2023-04-24T02:28:47;0.57;;;0.53;;
19812;SDS011;10066;48.108;11.448;2023-04-24T02:31:15;1.73;;;0.50;;
19812;SDS011;10066;48.108;11.448;2023-04-24T02:33:42;0.60;;;0.60;;
19812;SDS011;10066;48.108;11.448;2023-04-24T02:36:09;0.43;;;0.40;;
19812;SDS011;10066;48.108;11.448;2023-04-24T02:38:36;1.40;;;0.50;;
19812;SDS011;10066;48.108;11.448;2023-04-24T02:41:03;0.70;;;0.47;;
19812;SDS011;10066;48.108;11.448;2023-04-24T02:43:31;0.83;;;0.57;;
19812;SDS011;10066;48.108;11.448;2023-04-24T02:45:58;1.07;;;0.60;;
19812;SDS011;10066;48.108;11.448;2023-04-24T02:48:27;1.13;;;0.50;;
19812;SDS011;10066;48.108;11.448;2023-04-24T02:50:54;0.80;;;0.50;;
19812;SDS011;10066;48.108;11.448;2023-04-24T02:53:21;0.50;;;0.50;;
19812;SDS011;10066;48.108;11.448;2023-04-24T02:55:48;0.70;;;0.50;;
19812;SDS011;10066;48.108;11.448;2023-04-24T02:58:15;0.77;;;0.53;;
19812;SDS011;10066;48.108;11.448;2023-04-24T03:00:44;0.53;;;0.50;;
19812;SDS011;10066;48.108;11.448;2023-04-24T03:03:12;1.63;;;0.60;;
19812;SDS011;10066;48.108;11.448;2023-04-24T03:05:41;0.50;;;0.43;;
19812;SDS011;10066;48.108;11.448;2023-04-24T03:08:08;0.60;;;0.47;;
19812;SDS011;10066;48.108;11.448;2023-04-24T03:10:35;1.07;;;0.50;;
19812;SDS011;10066;48.108;11.448;2023-04-24T03:13:02;0.30;;;0.30;;
19812;SDS011;10066;48.108;11.448;2023-04-24T03:15:29;1.00;;;0.47;;
19812;SDS011;10066;48.108;11.448;2023-04-24T03:17:56;0.50;;;0.50;;
19812;SDS011;10066;48.108;11.448;2023-04-24T03:20:23;2.50;;;0.50;;
19812;SDS011;10066;48.108;11.448;2023-04-24T03:22:52;0.80;;;0.60;;
19812;SDS011;10066;48.108;11.448;2023-04-24T03:25:18;1.13;;;0.60;;
19812;SDS011;10066;48.108;11.448;2023-04-24T03:27:46;0.40;;;0.40;;
19812;SDS011;10066;48.108;11.448;2023-04-24T03:30:13;1.23;;;0.57;;
19812;SDS011;10066;48.108;11.448;2023-04-24T03:32:40;0.70;;;0.47;;
19812;SDS011;10066;48.108;11.448;2023-04-24T03:35:07;0.70;;;0.50;;
19812;SDS011;10066;48.108;11.448;2023-04-24T03:37:34;0.97;;;0.60;;
19812;SDS011;10066;48.108;11.448;2023-04-24T03:40:03;1.13;;;0.50;;
19812;SDS011;10066;48.108;11.448;2023-04-24T03:42:32;1.37;;;0.50;;
19812;SDS011;10066;48.108;11.448;2023-04-24T03:44:59;0.60;;;0.50;;
19812;SDS011;10066;48.108;11.448;2023-04-24T03:47:26;0.60;;;0.50;;
19812;SDS011;10066;48.108;11.448;2023-04-24T03:49:53;0.90;;;0.53;;
19812;SDS011;10066;48.108;11.448;2023-04-24T03:52:20;0.60;;;0.60;;
19812;SDS011;10066;48.108;11.448;2023-04-24T03:54:47;1.63;;;0.50;;
19812;SDS011;10066;48.108;11.448;2023-04-24T03:57:15;1.03;;;0.50;;
19812;SDS011;10066;48.108;11.448;2023-04-24T03:59:42;1.67;;;0.70;;
19812;SDS011;10066;48.108;11.448;2023-04-24T04:02:09;2.10;;;0.60;;
19812;SDS011;10066;48.108;11.448;2023-04-24T04:04:36;2.53;;;0.70;;
19812;SDS011;10066;48.108;11.448;2023-04-24T04:07:03;6.83;;;0.63;;
19812;SDS011;10066;48.108;11.448;2023-04-24T04:09:30;3.20;;;1.17;;
19812;SDS011;10066;48.108;11.448;2023-04-24T04:11:58;0.80;;;0.70;;
19812;SDS011;10066;48.108;11.448;2023-04-24T04:14:27;1.27;;;0.60;;
19812;SDS011;10066;48.108;11.448;2023-04-24T04:16:54;0.90;;;0.50;;
19812;SDS011;10066;48.108;11.448;2023-04-24T04:19:21;0.90;;;0.70;;
19812;SDS011;10066;48.108;11.448;2023-04-24T04:21:47;2.83;;;0.73;;
19812;SDS011;10066;48.108;11.448;2023-04-24T04:24:18;1.77;;;0.67;;
19812;SDS011;10066;48.108;11.448;2023-04-24T04:26:45;0.90;;;0.60;;
19812;SDS011;10066;48.108;11.448;2023-04-24T04:29:12;1.30;;;0.60;;
19812;SDS011;10066;48.108;11.448;2023-04-24T04:31:41;4.30;;;0.83;;
19812;SDS011;10066;48.108;11.448;2023-04-24T04:34:08;0.63;;;0.50;;
19812;SDS011;10066;48.108;11.448;2023-04-24T04:36:36;1.93;;;0.57;;
19812;SDS011;10066;48.108;11.448;2023-04-24T04:39:05;1.30;;;0.70;;
19812;SDS011;10066;48.108;11.448;2023-04-24T04:41:32;0.77;;;0.60;;
19812;SDS011;10066;48.108;11.448;2023-04-24T04:44:00;1.27;;;0.70;;
19812;SDS011;10066;48.108;11.448;2023-04-24T04:46:29;2.93;;;0.60;;
19812;SDS011;10066;48.108;11.448;2023-04-24T04:48:59;1.63;;;0.50;;
19812;SDS011;10066;48.108;11.448;2023-04-24T04:51:26;0.80;;;0.50;;
19812;SDS011;10066;48.108;11.448;2023-04-24T04:53:53;1.33;;;0.60;;
19812;SDS011;10066;48.108;11.448;2023-04-24T04:56:20;0.73;;;0.67;;
19812;SDS011;10066;48.108;11.448;2023-04-24T04:58:47;1.17;;;0.63;;
19812;SDS011;10066;48.108;11.448;2023-04-24T05:01:14;1.70;;;0.60;;
19812;SDS011;10066;48.108;11.448;2023-04-24T05:03:41;0.90;;;0.60;;
19812;SDS011;10066;48.108;11.448;2023-04-24T05:06:09;0.67;;;0.60;;
19812;SDS011;10066;48.108;11.448;2023-04-24T05:08:36;1.63;;;0.60;;
19812;SDS011;10066;48.108;11.448;2023-04-24T05:11:04;1.03;;;0.50;;
19812;SDS011;10066;48.108;11.448;2023-04-24T05:13:31;0.60;;;0.50;;
19812;SDS011;10066;48.108;11.448;2023-04-24T05:15:58;1.27;;;0.60;;
19812;SDS011;10066;48.108;11.448;2023-04-24T05:18:25;2.17;;;0.47;;
19812;SDS011;10066;48.108;11.448;2023-04-24T05:20:52;0.50;;;0.40;;
19812;SDS011;10066;48.108;11.448;2023-04-24T05:23:20;0.37;;;0.37;;
19812;SDS011;10066;48.108;11.448;2023-04-24T05:25:47;1.53;;;0.50;;
19812;SDS011;10066;48.108;11.448;2023-04-24T05:28:14;0.60;;;0.40;;
19812;SDS011;10066;48.108;11.448;2023-04-24T05:30:41;0.90;;;0.40;;
19812;SDS011;10066;48.108;11.448;2023-04-24T05:33:08;1.20;;;0.50;;
19812;SDS011;10066;48.108;11.448;2023-04-24T05:35:35;1.23;;;0.53;;
19812;SDS011;10066;48.108;11.448;2023-04-24T05:38:02;1.80;;;0.60;;
19812;SDS011;10066;48.108;11.448;2023-04-24T05:40:30;1.53;;;0.70;;
19812;SDS011;10066;48.108;11.448;2023-04-24T05:42:57;1.07;;;0.53;;
19812;SDS011;10066;48.108;11.448;2023-04-24T05:45:24;1.17;;;0.43;;
19812;SDS011;10066;48.108;11.448;2023-04-24T05:47:52;1.33;;;0.50;;
19812;SDS011;10066;48.108;11.448;2023-04-24T05:50:19;0.50;;;0.47;;
19812;SDS011;10066;48.108;11.448;2023-04-24T05:52:46;0.77;;;0.60;;
19812;SDS011;10066;48.108;11.448;2023-04-24T05:55:13;0.70;;;0.70;;
19812;SDS011;10066;48.108;11.448;2023-04-24T05:57:56;1.90;;;0.60;;
19812;SDS011;10066;48.108;11.448;2023-04-24T06:00:23;0.87;;;0.40;;
19812;SDS011;10066;48.108;11.448;2023-04-24T06:02:50;0.93;;;0.40;;
19812;SDS011;10066;48.108;11.448;2023-04-24T06:05:17;0.47;;;0.40;;
19812;SDS011;10066;48.108;11.448;2023-04-24T06:07:44;2.10;;;0.40;;
19812;SDS011;10066;48.108;11.448;2023-04-24T06:10:11;0.60;;;0.50;;
19812;SDS011;10066;48.108;11.448;2023-04-24T06:12:39;0.67;;;0.50;;
19812;SDS011;10066;48.108;11.448;2023-04-24T06:15:07;0.33;;;0.30;;
19812;SDS011;10066;48.108;11.448;2023-04-24T06:17:35;0.80;;;0.40;;
19812;SDS011;10066;48.108;11.448;2023-04-24T06:20:02;1.33;;;0.50;;
19812;SDS011;10066;48.108;11.448;2023-04-24T06:22:30;0.93;;;0.50;;
19812;SDS011;10066;48.108;11.448;2023-04-24T06:24:57;0.90;;;0.40;;
19812;SDS011;10066;48.108;11.448;2023-04-24T06:27:25;1.37;;;0.60;;
19812;SDS011;10066;48.108;11.448;2023-04-24T06:29:52;0.50;;;0.40;;
19812;SDS011;10066;48.108;11.448;2023-04-24T06:32:22;0.87;;;0.53;;
19812;SDS011;10066;48.108;11.448;2023-04-24T06:34:50;0.87;;;0.60;;
19812;SDS011;10066;48.108;11.448;2023-04-24T06:37:18;0.30;;;0.30;;
19812;SDS011;10066;48.108;11.448;2023-04-24T06:39:45;1.50;;;0.60;;
19812;SDS011;10066;48.108;11.448;2023-04-24T06:42:12;0.87;;;0.40;;
19812;SDS011;10066;48.108;11.448;2023-04-24T06:44:39;0.50;;;0.37;;
19812;SDS011;10066;48.108;11.448;2023-04-24T06:47:07;2.67;;;0.50;;
19812;SDS011;10066;48.108;11.448;2023-04-24T06:49:36;2.60;;;0.40;;
19812;SDS011;10066;48.108;11.448;2023-04-24T06:52:03;0.93;;;0.40;;
19812;SDS011;10066;48.108;11.448;2023-04-24T06:54:30;1.37;;;0.53;;
19812;SDS011;10066;48.108;11.448;2023-04-24T06:56:57;0.97;;;0.40;;
19812;SDS011;10066;48.108;11.448;2023-04-24T06:59:25;0.30;;;0.30;;
19812;SDS011;10066;48.108;11.448;2023-04-24T07:01:53;2.27;;;0.30;;
19812;SDS011;10066;48.108;11.448;2023-04-24T07:04:21;0.60;;;0.40;;
19812;SDS011;10066;48.108;11.448;2023-04-24T07:06:51;0.57;;;0.40;;
19812;SDS011;10066;48.108;11.448;2023-04-24T07:09:19;0.57;;;0.40;;
19812;SDS011;10066;48.108;11.448;2023-04-24T07:11:47;0.40;;;0.30;;
19812;SDS011;10066;48.108;11.448;2023-04-24T07:14:14;0.60;;;0.37;;
19812;SDS011;10066;48.108;11.448;2023-04-24T07:16:41;0.40;;;0.37;;
19812;SDS011;10066;48.108;11.448;2023-04-24T07:19:08;0.87;;;0.20;;
19812;SDS011;10066;48.108;11.448;2023-04-24T07:21:35;0.50;;;0.30;;
19812;SDS011;10066;48.108;11.448;2023-04-24T07:24:04;0.37;;;0.30;;
19812;SDS011;10066;48.108;11.448;2023-04-24T07:26:34;1.40;;;0.33;;
19812;SDS011;10066;48.108;11.448;2023-04-24T07:29:01;0.50;;;0.30;;
19812;SDS011;10066;48.108;11.448;2023-04-24T07:31:28;0.70;;;0.30;;
19812;SDS011;10066;48.108;11.448;2023-04-24T07:33:55;1.47;;;0.30;;
19812;SDS011;10066;48.108;11.448;2023-04-24T07:36:23;1.37;;;0.37;;
19812;SDS011;10066;48.108;11.448;2023-04-24T07:38:51;0.80;;;0.30;;
19812;SDS011;10066;48.108;11.448;2023-04-24T07:41:19;0.30;;;0.30;;
19812;SDS011;10066;48.108;11.448;2023-04-24T07:43:46;0.73;;;0.33;;
19812;SDS011;10066;48.108;11.448;2023-04-24T07:46:13;1.30;;;0.40;;
19812;SDS011;10066;48.108;11.448;2023-04-24T07:48:40;0.70;;;0.40;;
19812;SDS011;10066;48.108;11.448;2023-04-24T07:51:07;0.30;;;0.30;;
19812;SDS011;10066;48.108;11.448;2023-04-24T07:53:36;1.33;;;0.30;;
19812;SDS011;10066;48.108;11.448;2023-04-24T07:56:02;0.80;;;0.30;;
19812;SDS011;10066;48.108;11.448;2023-04-24T07:58:31;0.67;;;0.40;;
19812;SDS011;10066;48.108;11.448;2023-04-24T08:00:58;0.40;;;0.40;;
19812;SDS011;10066;48.108;11.448;2023-04-24T08:03:25;0.60;;;0.40;;
19812;SDS011;10066;48.108;11.448;2023-04-24T08:05:52;0.20;;;0.20;;
19812;SDS011;10066;48.108;11.448;2023-04-24T08:08:21;1.80;;;0.30;;
19812;SDS011;10066;48.108;11.448;2023-04-24T08:10:49;3.30;;;0.30;;
19812;SDS011;10066;48.108;11.448;2023-04-24T08:13:16;1.07;;;0.40;;
19812;SDS011;10066;48.108;11.448;2023-04-24T08:15:44;0.80;;;0.27;;
19812;SDS011;10066;48.108;11.448;2023-04-24T08:18:11;2.80;;;0.67;;
19812;SDS011;10066;48.108;11.448;2023-04-24T08:20:38;0.50;;;0.20;;
19812;SDS011;10066;48.108;11.448;2023-04-24T08:23:05;1.13;;;0.30;;
19812;SDS011;10066;48.108;11.448;2023-04-24T08:25:32;0.40;;;0.40;;
19812;SDS011;10066;48.108;11.448;2023-04-24T08:28:00;0.93;;;0.40;;
19812;SDS011;10066;48.108;11.448;2023-04-24T08:30:28;0.20;;;0.20;;
19812;SDS011;10066;48.108;11.448;2023-04-24T08:32:56;2.43;;;0.30;;
19812;SDS011;10066;48.108;11.448;2023-04-24T08:35:24;1.20;;;0.30;;
19812;SDS011;10066;48.108;11.448;2023-04-24T08:37:51;3.10;;;0.30;;
19812;SDS011;10066;48.108;11.448;2023-04-24T08:40:18;0.73;;;0.30;;
19812;SDS011;10066;48.108;11.448;2023-04-24T08:42:53;0.60;;;0.40;;
19812;SDS011;10066;48.108;11.448;2023-04-24T08:45:21;1.13;;;0.40;;
19812;SDS011;10066;48.108;11.448;2023-04-24T08:47:49;4.03;;;0.60;;
19812;SDS011;10066;48.108;11.448;2023-04-24T08:50:19;0.93;;;0.70;;
19812;SDS011;10066;48.108;11.448;2023-04-24T08:52:47;1.67;;;0.60;;
19812;SDS011;10066;48.108;11.448;2023-04-24T08:55:15;0.97;;;0.90;;
19812;SDS011;10066;48.108;11.448;2023-04-24T08:57:43;5.27;;;0.90;;
19812;SDS011;10066;48.108;11.448;2023-04-24T09:00:13;2.03;;;0.90;;
19812;SDS011;10066;48.108;11.448;2023-04-24T09:02:41;2.23;;;0.80;;
19812;SDS011;10066;48.108;11.448;2023-04-24T09:05:10;2.80;;;0.90;;
19812;SDS011;10066;48.108;11.448;2023-04-24T09:07:38;3.00;;;0.80;;
19812;SDS011;10066;48.108;11.448;2023-04-24T09:10:07;1.20;;;0.83;;
19812;SDS011;10066;48.108;11.448;2023-04-24T09:12:35;2.43;;;1.00;;
19812;SDS011;10066;48.108;11.448;2023-04-24T09:15:02;1.00;;;0.90;;
19812;SDS011;10066;48.108;11.448;2023-04-24T09:17:30;1.33;;;0.97;;
19812;SDS011;10066;48.108;11.448;2023-04-24T09:19:58;4.00;;;1.00;;
19812;SDS011;10066;48.108;11.448;2023-04-24T09:22:25;1.37;;;0.77;;
19812;SDS011;10066;48.108;11.448;2023-04-24T09:25:01;2.50;;;0.90;;
19812;SDS011;10066;48.108;11.448;2023-04-24T09:27:31;1.93;;;0.90;;
19812;SDS011;10066;48.108;11.448;2023-04-24T09:29:58;2.10;;;0.77;;
19812;SDS011;10066;48.108;11.448;2023-04-24T09:32:25;1.77;;;0.70;;
19812;SDS011;10066;48.108;11.448;2023-04-24T09:35:10;0.80;;;0.60;;
19812;SDS011;10066;48.108;11.448;2023-04-24T09:37:39;0.60;;;0.40;;
19812;SDS011;10066;48.108;11.448;2023-04-24T09:40:09;1.10;;;0.73;;
19812;SDS011;10066;48.108;11.448;2023-04-24T09:42:37;1.07;;;0.60;;
19812;SDS011;10066;48.108;11.448;2023-04-24T09:45:08;1.63;;;0.77;;
19812;SDS011;10066;48.108;11.448;2023-04-24T09:47:36;2.10;;;0.80;;
19812;SDS011;10066;48.108;11.448;2023-04-24T09:50:11;1.23;;;0.73;;
19812;SDS011;10066;48.108;11.448;2023-04-24T09:52:40;2.63;;;0.80;;
19812;SDS011;10066;48.108;11.448;2023-04-24T09:55:13;1.07;;;0.70;;
19812;SDS011;10066;48.108;11.448;2023-04-24T09:57:54;1.93;;;0.80;;
19812;SDS011;10066;48.108;11.448;2023-04-24T10:00:22;1.20;;;0.80;;
19812;SDS011;10066;48.108;11.448;2023-04-24T10:02:50;1.03;;;0.80;;
19812;SDS011;10066;48.108;11.448;2023-04-24T10:05:22;1.67;;;0.63;;
19812;SDS011;10066;48.108;11.448;2023-04-24T10:07:50;1.17;;;0.70;;
19812;SDS011;10066;48.108;11.448;2023-04-24T10:10:19;1.33;;;0.70;;
19812;SDS011;10066;48.108;11.448;2023-04-24T10:12:46;1.67;;;0.70;;
19812;SDS011;10066;48.108;11.448;2023-04-24T10:15:13;0.90;;;0.70;;
19812;SDS011;10066;48.108;11.448;2023-04-24T10:17:45;1.50;;;0.87;;
19812;SDS011;10066;48.108;11.448;2023-04-24T10:20:17;2.80;;;0.80;;
19812;SDS011;10066;48.108;11.448;2023-04-24T10:22:45;1.93;;;0.90;;
19812;SDS011;10066;48.108;11.448;2023-04-24T10:25:15;2.43;;;0.93;;
19812;SDS011;10066;48.108;11.448;2023-04-24T10:27:44;2.10;;;0.70;;
19812;SDS011;10066;48.108;11.448;2023-04-24T10:30:12;1.73;;;0.90;;
19812;SDS011;10066;48.108;11.448;2023-04-24T10:32:40;2.10;;;0.63;;
19812;SDS011;10066;48.108;11.448;2023-04-24T10:35:07;0.97;;;0.70;;
19812;SDS011;10066;48.108;11.448;2023-04-24T10:37:36;1.13;;;0.60;;
19812;SDS011;10066;48.108;11.448;2023-04-24T10:40:05;2.10;;;0.80;;
19812;SDS011;10066;48.108;11.448;2023-04-24T10:42:34;1.83;;;0.80;;
19812;SDS011;10066;48.108;11.448;2023-04-24T10:45:07;1.50;;;0.90;;
19812;SDS011;10066;48.108;11.448;2023-04-24T10:47:50;1.00;;;0.67;;
19812;SDS011;10066;48.108;11.448;2023-04-24T10:50:18;1.83;;;0.80;;
19812;SDS011;10066;48.108;11.448;2023-04-24T10:52:45;2.53;;;0.70;;
19812;SDS011;10066;48.108;11.448;2023-04-24T10:55:13;1.07;;;0.70;;
19812;SDS011;10066;48.108;11.448;2023-04-24T10:57:44;1.33;;;0.80;;
19812;SDS011;10066;48.108;11.448;2023-04-24T11:00:30;2.03;;;0.87;;
19812;SDS011;10066;48.108;11.448;2023-04-24T11:02:57;2.83;;;0.80;;
19812;SDS011;10066;48.108;11.448;2023-04-24T11:08:22;0.83;;;0.70;;
19812;SDS011;10066;48.108;11.448;2023-04-24T11:10:55;0.83;;;0.70;;
19812;SDS011;10066;48.108;11.448;2023-04-24T11:13:24;1.20;;;0.80;;
19812;SDS011;10066;48.108;11.448;2023-04-24T11:18:49;1.03;;;0.63;;
19812;SDS011;10066;48.108;11.448;2023-04-24T11:21:19;0.93;;;0.53;;
19812;SDS011;10066;48.108;11.448;2023-04-24T11:23:46;1.00;;;0.50;;
19812;SDS011;10066;48.108;11.448;2023-04-24T11:26:17;2.23;;;1.43;;
19812;SDS011;10066;48.108;11.448;2023-04-24T11:28:45;0.93;;;0.70;;
19812;SDS011;10066;48.108;11.448;2023-04-24T11:34:07;0.70;;;0.60;;
19812;SDS011;10066;48.108;11.448;2023-04-24T11:36:35;2.80;;;0.80;;
19812;SDS011;10066;48.108;11.448;2023-04-24T11:39:02;2.50;;;0.90;;
19812;SDS011;10066;48.108;11.448;2023-04-24T11:41:29;1.43;;;0.83;;
19812;SDS011;10066;48.108;11.448;2023-04-24T11:43:56;2.57;;;1.00;;
19812;SDS011;10066;48.108;11.448;2023-04-24T11:46:26;1.17;;;0.87;;
19812;SDS011;10066;48.108;11.448;2023-04-24T11:48:55;1.20;;;0.80;;
19812;SDS011;10066;48.108;11.448;2023-04-24T11:51:22;1.20;;;0.87;;
19812;SDS011;10066;48.108;11.448;2023-04-24T11:53:50;5.97;;;1.00;;
19812;SDS011;10066;48.108;11.448;2023-04-24T11:56:17;0.60;;;0.50;;
19812;SDS011;10066;48.108;11.448;2023-04-24T11:58:45;0.90;;;0.80;;
19812;SDS011;10066;48.108;11.448;2023-04-24T12:01:12;1.20;;;0.70;;
19812;SDS011;10066;48.108;11.448;2023-04-24T12:03:40;0.90;;;0.70;;
19812;SDS011;10066;48.108;11.448;2023-04-24T12:06:11;1.07;;;0.73;;
19812;SDS011;10066;48.108;11.448;2023-04-24T12:08:38;1.17;;;0.80;;
19812;SDS011;10066;48.108;11.448;2023-04-24T12:11:06;0.70;;;0.70;;
19812;SDS011;10066;48.108;11.448;2023-04-24T12:13:33;1.83;;;0.80;;
19812;SDS011;10066;48.108;11.448;2023-04-24T12:16:02;1.00;;;0.70;;
19812;SDS011;10066;48.108;11.448;2023-04-24T12:18:30;1.10;;;0.60;;
19812;SDS011;10066;48.108;11.448;2023-04-24T12:23:45;0.90;;;0.80;;
19812;SDS011;10066;48.108;11.448;2023-04-24T12:26:15;2.37;;;0.80;;
19812;SDS011;10066;48.108;11.448;2023-04-24T12:28:45;1.07;;;0.70;;
19812;SDS011;10066;48.108;11.448;2023-04-24T12:31:13;1.93;;;0.77;;
19812;SDS011;10066;48.108;11.448;2023-04-24T12:33:40;1.00;;;0.70;;
19812;SDS011;10066;48.108;11.448;2023-04-24T12:36:09;0.80;;;0.60;;
19812;SDS011;10066;48.108;11.448;2023-04-24T12:38:43;1.27;;;0.70;;
19812;SDS011;10066;48.108;11.448;2023-04-24T12:41:11;2.07;;;0.60;;
19812;SDS011;10066;48.108;11.448;2023-04-24T12:43:50;4.43;;;1.10;;
19812;SDS011;10066;48.108;11.448;2023-04-24T12:46:17;1.23;;;0.77;;
19812;SDS011;10066;48.108;11.448;2023-04-24T12:48:44;1.93;;;0.87;;
19812;SDS011;10066;48.108;11.448;2023-04-24T12:51:11;1.10;;;0.60;;
19812;SDS011;10066;48.108;11.448;2023-04-24T12:53:40;1.53;;;0.80;;
19812;SDS011;10066;48.108;11.448;2023-04-24T12:56:06;1.80;;;0.73;;
19812;SDS011;10066;48.108;11.448;2023-04-24T12:58:33;2.43;;;0.80;;
19812;SDS011;10066;48.108;11.448;2023-04-24T13:01:00;1.87;;;0.87;;
19812;SDS011;10066;48.108;11.448;2023-04-24T13:03:27;1.33;;;0.60;;
19812;SDS011;10066;48.108;11.448;2023-04-24T13:05:54;2.67;;;0.90;;
19812;SDS011;10066;48.108;11.448;2023-04-24T13:08:21;0.83;;;0.70;;
19812;SDS011;10066;48.108;11.448;2023-04-24T13:10:50;1.97;;;0.90;;
19812;SDS011;10066;48.108;11.448;2023-04-24T13:13:18;3.33;;;1.00;;
19812;SDS011;10066;48.108;11.448;2023-04-24T13:15:45;1.63;;;0.80;;
19812;SDS011;10066;48.108;11.448;2023-04-24T13:18:12;3.93;;;0.80;;
19812;SDS011;10066;48.108;11.448;2023-04-24T13:20:39;1.27;;;0.70;;
19812;SDS011;10066;48.108;11.448;2023-04-24T13:23:06;2.03;;;0.80;;
19812;SDS011;10066;48.108;11.448;2023-04-24T13:25:34;1.07;;;0.77;;
19812;SDS011;10066;48.108;11.448;2023-04-24T13:28:03;1.30;;;0.90;;
19812;SDS011;10066;48.108;11.448;2023-04-24T13:30:31;1.90;;;0.80;;
19812;SDS011;10066;48.108;11.448;2023-04-24T13:32:58;2.03;;;0.80;;
19812;SDS011;10066;48.108;11.448;2023-04-24T13:35:25;1.33;;;0.90;;
19812;SDS011;10066;48.108;11.448;2023-04-24T13:37:52;4.80;;;1.63;;
19812;SDS011;10066;48.108;11.448;2023-04-24T13:40:19;2.27;;;0.90;;
19812;SDS011;10066;48.108;11.448;2023-04-24T13:42:46;2.20;;;0.90;;
19812;SDS011;10066;48.108;11.448;2023-04-24T13:45:14;4.97;;;1.00;;
19812;SDS011;10066;48.108;11.448;2023-04-24T13:47:41;2.20;;;0.90;;
19812;SDS011;10066;48.108;11.448;2023-04-24T13:50:08;2.37;;;0.90;;
19812;SDS011;10066;48.108;11.448;2023-04-24T13:52:36;1.43;;;0.90;;
19812;SDS011;10066;48.108;11.448;2023-04-24T13:55:03;1.63;;;0.70;;
19812;SDS011;10066;48.108;11.448;2023-04-24T13:57:30;1.63;;;0.80;;
19812;SDS011;10066;48.108;11.448;2023-04-24T13:59:58;3.37;;;1.10;;
19812;SDS011;10066;48.108;11.448;2023-04-24T14:02:29;2.37;;;1.00;;
19812;SDS011;10066;48.108;11.448;2023-04-24T14:04:56;3.67;;;1.50;;
19812;SDS011;10066;48.108;11.448;2023-04-24T14:07:23;1.47;;;1.10;;
19812;SDS011;10066;48.108;11.448;2023-04-24T14:09:50;1.50;;;0.83;;
19812;SDS011;10066;48.108;11.448;2023-04-24T14:12:17;1.57;;;1.00;;
19812;SDS011;10066;48.108;11.448;2023-04-24T14:14:46;0.80;;;0.80;;
19812;SDS011;10066;48.108;11.448;2023-04-24T14:17:13;1.63;;;1.00;;
19812;SDS011;10066;48.108;11.448;2023-04-24T14:19:42;1.80;;;0.90;;
19812;SDS011;10066;48.108;11.448;2023-04-24T14:22:09;2.80;;;1.07;;
19812;SDS011;10066;48.108;11.448;2023-04-24T14:24:36;1.53;;;0.80;;
19812;SDS011;10066;48.108;11.448;2023-04-24T14:27:03;2.97;;;0.63;;
19812;SDS011;10066;48.108;11.448;2023-04-24T14:29:30;2.97;;;1.00;;
19812;SDS011;10066;48.108;11.448;2023-04-24T14:31:57;2.50;;;0.60;;
19812;SDS011;10066;48.108;11.448;2023-04-24T14:34:24;2.23;;;0.90;;
19812;SDS011;10066;48.108;11.448;2023-04-24T14:36:52;3.87;;;0.67;;
19812;SDS011;10066;48.108;11.448;2023-04-24T14:39:19;1.17;;;0.80;;
19812;SDS011;10066;48.108;11.448;2023-04-24T14:41:46;0.80;;;0.70;;
19812;SDS011;10066;48.108;11.448;2023-04-24T14:44:14;0.87;;;0.73;;
19812;SDS011;10066;48.108;11.448;2023-04-24T14:46:41;1.50;;;0.70;;
19812;SDS011;10066;48.108;11.448;2023-04-24T14:49:08;1.63;;;0.80;;